createdAt,value
2023-01-19T00:01:40.295Z,4.30
2023-01-19T00:04:08.030Z,5.17
2023-01-19T00:06:35.448Z,5.13
2023-01-19T00:09:03.264Z,4.10
2023-01-19T00:11:30.890Z,5.10
2023-01-19T00:13:59.033Z,3.70
2023-01-19T00:16:26.349Z,5.13
2023-01-19T00:18:54.062Z,4.97
2023-01-19T00:21:22.469Z,5.00
2023-01-19T00:23:52.747Z,4.07
2023-01-19T00:26:22.413Z,5.53
2023-01-19T00:28:50.543Z,5.13
2023-01-19T00:31:20.808Z,4.63
2023-01-19T00:33:49.492Z,4.97
2023-01-19T00:36:16.925Z,4.22
2023-01-19T00:38:44.261Z,4.07
2023-01-19T00:41:11.918Z,3.13
2023-01-19T00:43:39.223Z,4.73
2023-01-19T00:46:06.782Z,5.33
2023-01-19T00:48:34.506Z,2.67
2023-01-19T00:51:01.769Z,3.87
2023-01-19T00:53:32.671Z,3.37
2023-01-19T00:56:00.277Z,3.27
2023-01-19T00:58:27.625Z,3.97
2023-01-19T01:00:57.991Z,4.07
2023-01-19T01:03:28.292Z,3.97
2023-01-19T01:05:55.727Z,4.37
2023-01-19T01:08:23.137Z,5.50
2023-01-19T01:10:51.502Z,4.87
2023-01-19T01:13:20.571Z,4.67
2023-01-19T01:15:53.297Z,3.63
2023-01-19T01:20:48.829Z,4.00
2023-01-19T01:23:16.735Z,4.03
2023-01-19T01:25:46.808Z,4.43
2023-01-19T01:28:14.041Z,3.62
2023-01-19T01:30:43.559Z,3.67
2023-01-19T01:33:11.964Z,3.37
2023-01-19T01:35:39.866Z,3.83
2023-01-19T01:38:08.076Z,3.65
2023-01-19T01:40:35.257Z,4.90
2023-01-19T01:43:02.979Z,3.30
2023-01-19T01:45:35.332Z,4.18
2023-01-19T01:48:10.606Z,3.30
2023-01-19T01:51:03.747Z,4.23
2023-01-19T01:53:34.233Z,2.97
2023-01-19T01:56:06.990Z,3.90
2023-01-19T01:58:35.936Z,3.57
2023-01-19T02:03:50.478Z,3.17
2023-01-19T02:06:18.019Z,3.70
2023-01-19T02:09:10.940Z,3.20
2023-01-19T02:11:57.440Z,2.77
2023-01-19T02:14:24.711Z,3.03
2023-01-19T02:16:52.663Z,4.00
2023-01-19T02:19:30.487Z,2.33
2023-01-19T02:22:50.587Z,2.83
2023-01-19T02:25:20.514Z,2.20
2023-01-19T02:27:50.819Z,4.43
2023-01-19T02:30:19.005Z,3.17
2023-01-19T02:32:46.399Z,3.43
2023-01-19T02:35:15.360Z,3.97
2023-01-19T02:37:44.535Z,2.60
2023-01-19T02:45:15.560Z,2.27
2023-01-19T02:47:52.147Z,3.90
2023-01-19T02:50:37.690Z,3.00
2023-01-19T02:53:11.838Z,4.57
2023-01-19T02:55:40.549Z,3.67
2023-01-19T03:01:00.712Z,4.90
2023-01-19T03:03:33.220Z,3.97
2023-01-19T03:06:18.591Z,2.77
2023-01-19T03:09:15.769Z,4.03
2023-01-19T03:11:50.499Z,3.13
2023-01-19T03:14:23.718Z,3.83
2023-01-19T03:16:57.073Z,2.97
2023-01-19T03:19:32.140Z,8.67
2023-01-19T03:22:03.974Z,4.60
2023-01-19T03:24:37.107Z,5.20
2023-01-19T03:27:14.504Z,3.67
2023-01-19T03:29:47.576Z,3.87
2023-01-19T03:32:18.062Z,6.13
2023-01-19T03:34:49.554Z,5.63
2023-01-19T03:37:19.635Z,5.20
2023-01-19T03:39:47.437Z,5.30
2023-01-19T03:42:17.303Z,14.40
2023-01-19T03:44:46.604Z,9.87
2023-01-19T03:47:15.229Z,9.10
2023-01-19T03:49:45.882Z,9.73
2023-01-19T03:52:14.399Z,8.10
2023-01-19T03:54:42.013Z,9.57
2023-01-19T03:57:10.297Z,8.73
2023-01-19T03:59:37.920Z,6.57
2023-01-19T04:02:05.303Z,10.97
2023-01-19T04:04:33.103Z,9.70
2023-01-19T04:07:01.491Z,9.80
2023-01-19T04:09:28.879Z,10.00
2023-01-19T04:11:57.435Z,12.10
2023-01-19T04:14:24.828Z,11.17
2023-01-19T04:16:52.331Z,10.10
2023-01-19T04:19:19.889Z,9.13
2023-01-19T04:21:50.981Z,9.07
2023-01-19T04:24:18.889Z,8.70
2023-01-19T04:26:46.624Z,8.95
2023-01-19T04:29:14.499Z,34.93
2023-01-19T04:31:42.045Z,28.70
2023-01-19T04:34:10.466Z,33.47
2023-01-19T04:36:37.798Z,34.67
2023-01-19T04:39:05.316Z,30.47
2023-01-19T04:41:33.095Z,32.00
2023-01-19T04:44:00.721Z,29.43
2023-01-19T04:46:28.218Z,21.57
2023-01-19T04:48:55.896Z,19.40
2023-01-19T04:51:23.286Z,19.20
2023-01-19T04:53:50.560Z,27.17
2023-01-19T04:56:18.227Z,25.83
2023-01-19T04:58:45.543Z,22.87
2023-01-19T05:01:13.173Z,21.43
2023-01-19T05:03:40.942Z,19.23
2023-01-19T05:06:10.897Z,18.17
2023-01-19T05:08:38.495Z,15.00
2023-01-19T05:11:06.208Z,16.20
2023-01-19T05:13:33.712Z,16.17
2023-01-19T05:16:01.745Z,11.13
2023-01-19T05:18:30.073Z,15.63
2023-01-19T05:20:57.468Z,13.77
2023-01-19T05:23:24.839Z,15.27
2023-01-19T05:25:52.635Z,16.97
2023-01-19T05:28:21.357Z,15.33
2023-01-19T05:30:52.102Z,21.48
2023-01-19T05:33:20.146Z,19.20
2023-01-19T05:35:50.620Z,20.10
2023-01-19T05:38:23.340Z,17.27
2023-01-19T05:43:25.946Z,14.65
2023-01-19T05:45:53.360Z,10.80
2023-01-19T05:48:21.083Z,9.07
2023-01-19T05:50:49.775Z,18.43
2023-01-19T05:53:17.353Z,16.58
2023-01-19T05:55:45.124Z,12.50
2023-01-19T05:58:12.464Z,10.70
2023-01-19T06:00:39.803Z,9.77
2023-01-19T06:03:07.541Z,8.40
2023-01-19T06:05:35.667Z,12.83
2023-01-19T06:08:03.183Z,18.47
2023-01-19T06:10:31.059Z,17.63
2023-01-19T06:12:59.101Z,19.77
2023-01-19T06:15:26.723Z,22.70
2023-01-19T06:17:54.379Z,27.50
2023-01-19T06:20:21.882Z,25.43
2023-01-19T06:22:49.271Z,17.93
2023-01-19T06:25:17.056Z,49.23
2023-01-19T06:27:45.569Z,46.50
2023-01-19T06:30:13.868Z,34.55
2023-01-19T06:32:41.674Z,31.23
2023-01-19T06:35:09.465Z,28.77
2023-01-19T06:37:36.920Z,50.87
2023-01-19T06:40:05.323Z,31.07
2023-01-19T06:42:32.854Z,40.07
2023-01-19T06:45:00.308Z,37.27
2023-01-19T06:47:28.110Z,26.90
2023-01-19T06:49:55.390Z,34.57
2023-01-19T06:52:22.835Z,41.80
2023-01-19T06:54:50.482Z,36.90
2023-01-19T06:57:17.920Z,36.27
2023-01-19T06:59:45.323Z,40.40
2023-01-19T07:02:26.357Z,26.67
2023-01-19T07:04:56.569Z,29.30
2023-01-19T07:07:24.437Z,31.92
2023-01-19T07:09:53.984Z,26.50
2023-01-19T07:12:22.762Z,18.70
2023-01-19T07:14:50.499Z,14.40
2023-01-19T07:17:17.836Z,24.40
2023-01-19T07:19:46.036Z,10.53
2023-01-19T07:22:13.840Z,24.15
2023-01-19T07:24:41.603Z,18.17
2023-01-19T07:27:09.010Z,15.60
2023-01-19T07:29:36.635Z,16.87
2023-01-19T07:32:04.570Z,7.37
2023-01-19T07:34:32.061Z,4.90
2023-01-19T07:36:59.838Z,4.77
2023-01-19T07:39:27.234Z,4.73
2023-01-19T07:41:54.612Z,5.83
2023-01-19T07:44:23.776Z,6.07
2023-01-19T07:46:51.402Z,5.30
2023-01-19T07:49:18.844Z,4.60
2023-01-19T07:51:47.021Z,4.17
2023-01-19T07:54:14.337Z,4.27
2023-01-19T07:56:41.647Z,4.63
2023-01-19T07:59:11.012Z,6.20
2023-01-19T08:04:06.566Z,4.97
2023-01-19T08:06:37.233Z,6.47
2023-01-19T08:09:08.653Z,5.77
2023-01-19T08:11:36.857Z,5.70
2023-01-19T08:14:05.770Z,5.57
2023-01-19T08:16:35.588Z,5.50
2023-01-19T08:19:03.943Z,5.12
2023-01-19T08:21:33.479Z,5.87
2023-01-19T08:24:00.896Z,6.43
2023-01-19T08:26:34.657Z,5.07
2023-01-19T08:29:05.507Z,6.40
2023-01-19T08:31:33.349Z,6.90
2023-01-19T08:34:00.939Z,6.57
2023-01-19T08:36:29.082Z,6.00
2023-01-19T08:38:56.827Z,6.57
2023-01-19T08:41:24.250Z,5.50
2023-01-19T08:43:51.650Z,5.90
2023-01-19T08:46:22.092Z,7.07
2023-01-19T08:48:50.588Z,6.83
2023-01-19T08:51:19.071Z,6.43
2023-01-19T08:53:47.324Z,5.90
2023-01-19T08:56:15.358Z,5.03
2023-01-19T08:58:45.681Z,4.83
2023-01-19T09:01:17.712Z,6.68
2023-01-19T09:03:45.077Z,4.50
2023-01-19T09:06:16.582Z,5.00
2023-01-19T09:08:44.347Z,5.07
2023-01-19T09:11:13.711Z,5.63
2023-01-19T09:13:41.849Z,6.13
2023-01-19T09:16:11.638Z,4.77
2023-01-19T09:18:39.621Z,4.35
2023-01-19T09:21:08.463Z,4.20
2023-01-19T09:23:36.840Z,6.00
2023-01-19T09:26:06.519Z,4.45
2023-01-19T09:28:34.419Z,5.25
2023-01-19T09:31:06.869Z,5.35
2023-01-19T09:33:35.880Z,4.85
2023-01-19T09:36:03.490Z,5.05
2023-01-19T09:38:33.050Z,5.40
2023-01-19T09:41:01.594Z,5.68
2023-01-19T09:43:41.386Z,4.40
2023-01-19T09:46:35.784Z,3.87
2023-01-19T09:49:12.930Z,4.87
2023-01-19T09:51:46.335Z,4.60
2023-01-19T09:54:19.539Z,3.85
2023-01-19T09:56:52.115Z,3.83
2023-01-19T09:59:29.029Z,4.40
2023-01-19T10:02:31.915Z,4.85
2023-01-19T10:05:23.277Z,4.45
2023-01-19T10:08:09.793Z,4.07
2023-01-19T10:10:40.671Z,4.80
2023-01-19T10:13:47.197Z,5.77
2023-01-19T10:16:40.033Z,4.43
2023-01-19T10:19:26.226Z,4.40
2023-01-19T10:21:58.136Z,4.67
2023-01-19T10:24:37.620Z,3.92
2023-01-19T10:27:13.771Z,4.87
2023-01-19T10:29:41.371Z,4.13
2023-01-19T10:32:26.252Z,4.03
2023-01-19T10:34:55.000Z,4.57
2023-01-19T10:40:09.903Z,2.92
2023-01-19T10:42:40.578Z,4.22
2023-01-19T10:45:18.971Z,3.60
2023-01-19T10:50:31.329Z,4.07
2023-01-19T10:53:01.715Z,3.72
2023-01-19T10:55:40.675Z,3.95
2023-01-19T10:58:31.185Z,4.07
2023-01-19T11:01:23.339Z,3.83
2023-01-19T11:03:53.582Z,3.60
2023-01-19T11:06:22.504Z,4.87
2023-01-19T11:08:52.012Z,5.47
2023-01-19T11:11:21.775Z,4.03
2023-01-19T11:14:07.393Z,4.33
2023-01-19T11:16:38.088Z,3.87
2023-01-19T11:19:07.723Z,4.27
2023-01-19T11:21:35.464Z,3.63
2023-01-19T11:24:09.190Z,4.20
2023-01-19T11:26:49.430Z,3.87
2023-01-19T11:29:23.126Z,3.73
2023-01-19T11:31:52.554Z,3.10
2023-01-19T11:37:06.027Z,3.57
2023-01-19T11:39:47.922Z,5.10
2023-01-19T11:42:18.080Z,3.73
2023-01-19T11:45:06.733Z,2.80
2023-01-19T11:47:41.644Z,3.45
2023-01-19T11:50:15.669Z,4.07
2023-01-19T11:52:46.188Z,4.33
2023-01-19T11:55:32.189Z,4.37
2023-01-19T11:58:00.057Z,4.07
2023-01-19T12:00:36.315Z,4.40
2023-01-19T12:03:07.015Z,3.53
2023-01-19T12:05:37.468Z,4.80
2023-01-19T12:08:11.636Z,4.57
2023-01-19T12:10:44.995Z,3.60
2023-01-19T12:13:23.903Z,4.80
2023-01-19T12:15:58.096Z,4.10
2023-01-19T12:18:30.594Z,2.43
2023-01-19T12:20:59.052Z,2.77
2023-01-19T12:24:11.683Z,2.65
2023-01-19T12:26:51.517Z,4.07
2023-01-19T12:29:24.966Z,2.63
2023-01-19T12:32:14.194Z,4.30
2023-01-19T12:34:50.203Z,2.47
2023-01-19T12:37:26.425Z,3.20
2023-01-19T12:39:56.541Z,2.70
2023-01-19T12:42:24.983Z,2.53
2023-01-19T12:45:07.073Z,3.37
2023-01-19T12:47:35.484Z,3.13
2023-01-19T12:50:17.193Z,4.23
2023-01-19T12:52:51.835Z,3.10
2023-01-19T12:55:34.802Z,2.10
2023-01-19T12:58:18.068Z,2.57
2023-01-19T13:00:48.511Z,2.80
2023-01-19T13:03:19.412Z,2.33
2023-01-19T13:05:55.504Z,3.40
2023-01-19T13:08:30.647Z,7.53
2023-01-19T13:11:05.185Z,2.00
2023-01-19T13:13:40.271Z,2.03
2023-01-19T13:16:20.087Z,2.90
2023-01-19T13:19:13.572Z,2.07
2023-01-19T13:21:47.185Z,2.47
2023-01-19T13:24:17.786Z,2.47
2023-01-19T13:26:54.951Z,3.13
2023-01-19T13:29:36.675Z,2.10
2023-01-19T13:32:17.777Z,3.50
2023-01-19T13:34:51.884Z,2.50
2023-01-19T13:37:23.342Z,2.80
2023-01-19T13:39:53.897Z,2.97
2023-01-19T13:42:28.230Z,3.80
2023-01-19T13:44:59.962Z,4.30
2023-01-19T13:47:49.725Z,2.97
2023-01-19T13:50:30.689Z,6.60
2023-01-19T13:52:59.496Z,4.77
2023-01-19T13:57:56.331Z,3.33
2023-01-19T14:00:33.590Z,3.20
2023-01-19T14:03:02.631Z,1.90
2023-01-19T14:05:38.272Z,2.33
2023-01-19T14:08:09.155Z,1.93
2023-01-19T14:10:39.088Z,2.93
2023-01-19T14:13:15.045Z,2.57
2023-01-19T14:15:43.410Z,3.10
2023-01-19T14:18:19.755Z,4.37
2023-01-19T14:21:03.860Z,2.97
2023-01-19T14:23:38.115Z,2.20
2023-01-19T14:26:06.341Z,2.00
2023-01-19T14:28:44.348Z,4.45
2023-01-19T14:31:21.162Z,3.03
2023-01-19T14:33:53.437Z,2.10
2023-01-19T14:36:33.900Z,2.23
2023-01-19T14:39:02.552Z,1.87
2023-01-19T14:41:30.312Z,2.47
2023-01-19T14:43:59.834Z,2.53
2023-01-19T14:46:28.299Z,2.10
2023-01-19T14:49:05.893Z,4.20
2023-01-19T14:51:33.794Z,2.50
2023-01-19T14:54:02.567Z,2.23
2023-01-19T14:56:33.071Z,2.70
2023-01-19T14:59:02.499Z,2.10
2023-01-19T15:01:31.358Z,2.10
2023-01-19T15:06:27.052Z,2.07
2023-01-19T15:08:54.872Z,2.23
2023-01-19T15:11:34.300Z,6.07
2023-01-19T15:14:02.688Z,1.60
2023-01-19T15:16:33.234Z,1.83
2023-01-19T15:19:00.916Z,2.10
2023-01-19T15:21:29.059Z,2.37
2023-01-19T15:23:58.387Z,2.90
2023-01-19T15:26:27.359Z,2.47
2023-01-19T15:28:56.494Z,1.40
2023-01-19T15:31:26.221Z,1.95
2023-01-19T15:33:53.913Z,1.23
2023-01-19T15:36:24.427Z,2.17
2023-01-19T15:38:52.022Z,2.47
2023-01-19T15:41:25.358Z,3.90
2023-01-19T15:43:53.618Z,3.40
2023-01-19T15:46:22.315Z,2.97
2023-01-19T15:48:50.776Z,2.08
2023-01-19T15:51:21.727Z,2.10
2023-01-19T15:53:49.824Z,1.43
2023-01-19T15:56:23.662Z,1.60
2023-01-19T15:58:52.184Z,1.60
2023-01-19T16:01:24.972Z,1.40
2023-01-19T16:03:52.956Z,1.60
2023-01-19T16:06:20.545Z,1.20
2023-01-19T16:08:47.897Z,1.70
2023-01-19T16:11:18.581Z,18.00
2023-01-19T16:13:46.563Z,12.40
2023-01-19T16:18:46.873Z,1.53
2023-01-19T16:21:14.411Z,2.00
2023-01-19T16:23:42.133Z,2.27
2023-01-19T16:26:34.611Z,1.60
2023-01-19T16:29:10.017Z,1.53
2023-01-19T16:31:42.696Z,3.60
2023-01-19T16:34:10.443Z,4.37
2023-01-19T16:36:42.848Z,8.27
2023-01-19T16:39:14.820Z,20.10
2023-01-19T16:41:43.929Z,13.50
2023-01-19T16:44:15.904Z,23.05
2023-01-19T16:46:46.005Z,10.80
2023-01-19T16:49:15.327Z,7.43
2023-01-19T16:51:43.644Z,12.70
2023-01-19T16:54:16.811Z,6.72
2023-01-19T16:56:44.441Z,12.20
2023-01-19T16:59:14.171Z,15.73
2023-01-19T17:01:42.472Z,16.10
2023-01-19T17:04:09.953Z,16.77
2023-01-19T17:06:37.924Z,14.90
2023-01-19T17:09:06.522Z,14.10
2023-01-19T17:11:35.134Z,14.32
2023-01-19T17:14:06.333Z,10.77
2023-01-19T17:16:35.948Z,8.43
2023-01-19T17:19:06.504Z,23.37
2023-01-19T17:21:34.805Z,45.20
2023-01-19T17:24:02.277Z,19.92
2023-01-19T17:26:31.306Z,31.93
2023-01-19T17:29:03.780Z,14.55
2023-01-19T17:31:32.471Z,16.17
2023-01-19T17:34:00.368Z,5.93
2023-01-19T17:36:29.548Z,2.33
2023-01-19T17:39:00.283Z,2.90
2023-01-19T17:41:32.815Z,3.40
2023-01-19T17:44:01.686Z,4.40
2023-01-19T17:46:29.917Z,2.80
2023-01-19T17:48:59.500Z,2.57
2023-01-19T17:51:28.764Z,2.03
2023-01-19T17:53:57.755Z,2.50
2023-01-19T17:56:29.972Z,3.42
2023-01-19T17:58:58.756Z,2.33
2023-01-19T18:01:31.944Z,2.22
2023-01-19T18:04:00.849Z,4.83
2023-01-19T18:06:28.340Z,8.02
2023-01-19T18:08:57.183Z,7.07
2023-01-19T18:13:53.455Z,6.85
2023-01-19T18:16:23.976Z,4.47
2023-01-19T18:18:53.880Z,3.00
2023-01-19T18:21:22.495Z,2.83
2023-01-19T18:23:51.433Z,2.80
2023-01-19T18:26:21.304Z,3.40
2023-01-19T18:28:51.643Z,2.40
2023-01-19T18:31:19.586Z,6.87
2023-01-19T18:33:50.102Z,3.37
2023-01-19T18:36:18.487Z,2.63
2023-01-19T18:38:46.959Z,7.97
2023-01-19T18:41:16.479Z,3.07
2023-01-19T18:43:44.158Z,3.67
2023-01-19T18:46:11.977Z,3.60
2023-01-19T18:48:39.853Z,5.47
2023-01-19T18:51:08.959Z,3.27
2023-01-19T18:53:37.341Z,4.80
2023-01-19T18:56:05.943Z,3.13
2023-01-19T18:58:36.587Z,3.37
2023-01-19T19:01:04.971Z,3.17
2023-01-19T19:03:32.554Z,13.10
2023-01-19T19:06:04.012Z,13.60
2023-01-19T19:08:33.125Z,12.17
2023-01-19T19:11:00.533Z,10.35
2023-01-19T19:13:27.956Z,5.03
2023-01-19T19:16:03.309Z,6.87
2023-01-19T19:18:31.217Z,8.47
2023-01-19T19:20:58.985Z,4.45
2023-01-19T19:23:26.513Z,4.57
2023-01-19T19:25:53.997Z,15.37
2023-01-19T19:28:22.040Z,15.30
2023-01-19T19:30:52.704Z,16.10
2023-01-19T19:33:20.065Z,16.13
2023-01-19T19:35:48.264Z,16.70
2023-01-19T19:38:15.694Z,20.17
2023-01-19T19:40:43.266Z,20.00
2023-01-19T19:43:10.933Z,16.23
2023-01-19T19:45:38.864Z,20.40
2023-01-19T19:48:06.362Z,11.63
2023-01-19T19:50:37.199Z,5.57
2023-01-19T19:53:04.513Z,26.87
2023-01-19T19:55:31.927Z,37.00
2023-01-19T19:57:59.622Z,19.67
2023-01-19T20:00:26.926Z,13.60
2023-01-19T20:02:55.375Z,4.47
2023-01-19T20:05:22.743Z,3.40
2023-01-19T20:07:50.085Z,4.13
2023-01-19T20:10:18.209Z,2.17
2023-01-19T20:12:45.843Z,6.53
2023-01-19T20:15:13.206Z,4.83
2023-01-19T20:17:41.063Z,2.83
2023-01-19T20:20:09.258Z,5.47
2023-01-19T20:22:36.558Z,3.37
2023-01-19T20:25:04.567Z,10.47
2023-01-19T20:27:32.063Z,13.77
2023-01-19T20:30:00.521Z,10.13
2023-01-19T20:32:28.255Z,11.35
2023-01-19T20:34:55.602Z,8.50
2023-01-19T20:37:23.031Z,5.60
2023-01-19T20:39:50.745Z,5.23
2023-01-19T20:42:18.342Z,5.87
2023-01-19T20:44:45.925Z,6.93
2023-01-19T20:47:13.634Z,6.57
2023-01-19T20:49:41.335Z,7.67
2023-01-19T20:52:08.937Z,7.50
2023-01-19T20:54:36.722Z,6.07
2023-01-19T20:57:04.119Z,4.20
2023-01-19T20:59:34.267Z,2.10
2023-01-19T21:02:02.205Z,3.90
2023-01-19T21:04:29.643Z,2.40
2023-01-19T21:06:57.035Z,6.30
2023-01-19T21:09:24.795Z,10.60
2023-01-19T21:11:52.224Z,14.90
2023-01-19T21:14:19.540Z,15.20
2023-01-19T21:16:47.379Z,8.13
2023-01-19T21:19:14.884Z,7.90
2023-01-19T21:21:42.297Z,10.00
2023-01-19T21:24:11.007Z,14.10
2023-01-19T21:26:38.623Z,15.40
2023-01-19T21:29:06.012Z,16.47
2023-01-19T21:31:33.752Z,13.53
2023-01-19T21:34:01.187Z,10.07
2023-01-19T21:36:28.667Z,7.07
2023-01-19T21:39:00.786Z,8.17
2023-01-19T21:41:30.254Z,7.23
2023-01-19T21:44:00.154Z,11.10
2023-01-19T21:46:29.705Z,4.73
2023-01-19T21:49:01.837Z,4.10
2023-01-19T21:51:33.713Z,3.03
2023-01-19T21:54:02.834Z,4.50
2023-01-19T21:56:31.304Z,5.00
2023-01-19T21:59:03.067Z,3.90
2023-01-19T22:01:34.858Z,7.10
2023-01-19T22:04:02.840Z,15.90
2023-01-19T22:06:30.272Z,21.30
2023-01-19T22:08:58.502Z,20.67
2023-01-19T22:11:26.753Z,18.40
2023-01-19T22:13:54.943Z,19.57
2023-01-19T22:16:24.121Z,16.27
2023-01-19T22:18:54.457Z,12.60
2023-01-19T22:21:24.383Z,11.67
2023-01-19T22:23:54.340Z,9.47
2023-01-19T22:26:22.211Z,7.13
2023-01-19T22:28:55.069Z,7.10
2023-01-19T22:31:24.272Z,7.90
2023-01-19T22:33:52.380Z,14.32
2023-01-19T22:36:22.121Z,12.87
2023-01-19T22:38:55.116Z,9.30
2023-01-19T22:41:31.500Z,16.10
2023-01-19T22:44:01.543Z,13.83
2023-01-19T22:46:31.871Z,12.60
2023-01-19T22:49:00.396Z,14.53
2023-01-19T22:51:30.293Z,15.00
2023-01-19T22:53:58.819Z,11.07
2023-01-19T22:56:28.661Z,14.10
2023-01-19T22:58:56.466Z,11.70
2023-01-19T23:01:33.853Z,9.37
2023-01-19T23:04:02.697Z,6.70
2023-01-19T23:06:33.066Z,6.60
2023-01-19T23:09:02.682Z,5.27
2023-01-19T23:11:35.953Z,4.37
2023-01-19T23:14:04.656Z,3.33
2023-01-19T23:16:32.214Z,3.33
2023-01-19T23:18:59.955Z,1.37
2023-01-19T23:21:29.590Z,1.30
2023-01-19T23:24:02.260Z,1.83
2023-01-19T23:26:30.957Z,1.40
2023-01-19T23:29:00.875Z,0.80
2023-01-19T23:31:30.657Z,1.10
2023-01-19T23:34:02.091Z,2.00
2023-01-19T23:36:32.250Z,1.80
2023-01-19T23:39:03.124Z,1.50
2023-01-19T23:41:33.360Z,1.10
2023-01-19T23:44:01.007Z,0.80
2023-01-19T23:46:28.774Z,0.60
2023-01-19T23:48:56.570Z,1.10
2023-01-19T23:51:27.723Z,2.23
2023-01-19T23:53:55.181Z,2.73
2023-01-19T23:56:24.381Z,2.00
2023-01-19T23:58:57.764Z,1.90
